createdAt,value
2017-12-05T00:01:57.217Z,91.99
2017-12-05T00:04:24.629Z,92.01
2017-12-05T00:06:52.021Z,91.86
2017-12-05T00:09:19.447Z,91.46
2017-12-05T00:11:46.837Z,91.12
2017-12-05T00:14:14.228Z,91.44
2017-12-05T00:16:41.626Z,91.23
2017-12-05T00:19:09.024Z,91.26
2017-12-05T00:21:36.423Z,91.40
2017-12-05T00:24:03.814Z,91.22
2017-12-05T00:26:31.219Z,91.59
2017-12-05T00:28:58.632Z,91.63
2017-12-05T00:31:26.032Z,91.80
2017-12-05T00:33:53.438Z,91.57
2017-12-05T00:36:20.830Z,91.69
2017-12-05T00:38:48.246Z,91.43
2017-12-05T00:41:15.655Z,90.95
2017-12-05T00:43:43.070Z,91.13
2017-12-05T00:46:10.462Z,91.20
2017-12-05T00:48:37.854Z,90.98
2017-12-05T00:51:05.273Z,91.02
2017-12-05T00:53:32.708Z,90.84
2017-12-05T00:56:00.094Z,90.37
2017-12-05T00:58:27.487Z,90.41
2017-12-05T01:00:54.901Z,90.39
2017-12-05T01:03:22.296Z,90.07
2017-12-05T01:05:49.713Z,90.02
2017-12-05T01:08:17.149Z,89.90
2017-12-05T01:10:44.535Z,89.53
2017-12-05T01:13:11.930Z,89.71
2017-12-05T01:15:39.354Z,89.47
2017-12-05T01:18:06.737Z,88.91
2017-12-05T01:20:34.170Z,88.83
2017-12-05T01:23:01.579Z,88.83
2017-12-05T01:25:28.975Z,89.24
2017-12-05T01:27:56.372Z,88.96
2017-12-05T01:30:23.774Z,88.61
2017-12-05T01:32:51.178Z,88.41
2017-12-05T01:35:18.590Z,88.57
2017-12-05T01:37:46.013Z,88.55
2017-12-05T01:40:13.442Z,88.15
2017-12-05T01:42:40.830Z,88.40
2017-12-05T01:45:08.217Z,88.30
2017-12-05T01:47:35.618Z,87.70
2017-12-05T01:50:03.056Z,88.11
2017-12-05T01:52:30.436Z,88.30
2017-12-05T01:54:57.839Z,87.65
2017-12-05T01:57:25.310Z,87.09
2017-12-05T01:59:52.690Z,88.30
2017-12-05T02:02:20.090Z,87.41
2017-12-05T02:04:47.524Z,87.17
2017-12-05T02:07:14.941Z,86.94
2017-12-05T02:09:42.307Z,86.77
2017-12-05T02:12:09.706Z,86.12
2017-12-05T02:14:37.098Z,86.71
2017-12-05T02:17:04.511Z,86.42
2017-12-05T02:19:31.902Z,86.21
2017-12-05T02:21:59.318Z,86.67
2017-12-05T02:24:26.731Z,86.27
2017-12-05T02:26:54.114Z,86.37
2017-12-05T02:29:21.605Z,86.24
2017-12-05T02:31:48.951Z,86.20
2017-12-05T02:34:16.346Z,86.12
2017-12-05T02:36:43.761Z,85.29
2017-12-05T02:39:11.174Z,85.00
2017-12-05T02:41:38.582Z,85.08
2017-12-05T02:44:05.973Z,84.93
2017-12-05T02:46:33.376Z,85.02
2017-12-05T02:49:00.763Z,84.75
2017-12-05T02:51:28.172Z,84.89
2017-12-05T02:53:55.560Z,84.69
2017-12-05T02:56:22.951Z,84.19
2017-12-05T02:58:50.339Z,84.29
2017-12-05T03:01:17.754Z,84.44
2017-12-05T03:03:45.194Z,84.23
2017-12-05T03:06:12.578Z,84.31
2017-12-05T03:08:39.978Z,83.84
2017-12-05T03:11:07.378Z,84.26
2017-12-05T03:13:34.789Z,84.64
2017-12-05T03:16:02.194Z,83.93
2017-12-05T03:18:29.595Z,83.92
2017-12-05T03:20:57.039Z,83.71
2017-12-05T03:23:24.447Z,83.89
2017-12-05T03:25:51.842Z,83.92
2017-12-05T03:28:19.288Z,83.96
2017-12-05T03:30:46.667Z,84.10
2017-12-05T03:33:14.092Z,84.16
2017-12-05T03:35:41.486Z,84.72
2017-12-05T03:38:08.886Z,84.53
2017-12-05T03:40:36.305Z,84.11
2017-12-05T03:43:03.718Z,84.65
2017-12-05T03:45:31.151Z,84.37
2017-12-05T03:47:58.546Z,84.25
2017-12-05T03:50:25.946Z,83.98
2017-12-05T03:52:53.350Z,84.63
2017-12-05T03:55:20.733Z,84.64
2017-12-05T03:57:48.147Z,84.44
2017-12-05T04:00:15.558Z,84.62
2017-12-05T04:02:42.946Z,85.17
2017-12-05T04:05:10.354Z,85.44
2017-12-05T04:07:37.774Z,84.70
2017-12-05T04:10:05.189Z,84.54
2017-12-05T04:12:32.574Z,84.09
2017-12-05T04:14:59.976Z,84.39
2017-12-05T04:17:27.379Z,84.06
2017-12-05T04:19:54.784Z,83.64
2017-12-05T04:22:22.174Z,83.86
2017-12-05T04:24:49.580Z,84.05
2017-12-05T04:27:16.971Z,84.66
2017-12-05T04:29:44.405Z,84.68
2017-12-05T04:32:11.803Z,85.19
2017-12-05T04:34:39.204Z,84.88
2017-12-05T04:37:06.614Z,85.41
2017-12-05T04:39:34.014Z,85.72
2017-12-05T04:42:01.410Z,85.39
2017-12-05T04:44:28.802Z,85.36
2017-12-05T04:46:56.202Z,85.26
2017-12-05T04:49:23.610Z,85.74
2017-12-05T04:51:51.022Z,85.89
2017-12-05T04:54:18.426Z,86.10
2017-12-05T04:56:45.826Z,84.49
2017-12-05T04:59:13.251Z,85.06
2017-12-05T05:01:40.626Z,84.93
2017-12-05T05:04:08.030Z,84.52
2017-12-05T05:06:35.418Z,84.52
2017-12-05T05:09:02.818Z,84.90
2017-12-05T05:11:30.222Z,85.21
2017-12-05T05:13:57.606Z,85.72
2017-12-05T05:16:25.004Z,85.60
2017-12-05T05:18:52.394Z,86.12
2017-12-05T05:21:19.796Z,86.28
2017-12-05T05:23:47.200Z,86.72
2017-12-05T05:26:14.622Z,86.48
2017-12-05T05:28:42.014Z,87.08
2017-12-05T05:31:09.459Z,86.81
2017-12-05T05:33:36.856Z,87.27
2017-12-05T05:36:04.249Z,87.73
2017-12-05T05:38:31.655Z,88.09
2017-12-05T05:40:59.059Z,88.06
2017-12-05T05:43:26.487Z,88.14
2017-12-05T05:45:53.892Z,88.22
2017-12-05T05:48:21.294Z,87.86
2017-12-05T05:50:48.686Z,88.15
2017-12-05T05:53:16.074Z,88.37
2017-12-05T05:55:43.522Z,87.80
2017-12-05T05:58:10.918Z,87.27
2017-12-05T06:00:38.321Z,86.92
2017-12-05T06:03:05.706Z,87.24
2017-12-05T06:05:33.111Z,87.45
2017-12-05T06:08:00.502Z,87.44
2017-12-05T06:10:27.907Z,87.60
2017-12-05T06:12:55.301Z,87.76
2017-12-05T06:15:22.693Z,87.42
2017-12-05T06:17:50.090Z,87.66
2017-12-05T06:20:17.491Z,87.96
2017-12-05T06:22:44.950Z,87.91
2017-12-05T06:25:12.362Z,88.17
2017-12-05T06:27:39.763Z,88.35
2017-12-05T06:30:07.158Z,88.69
2017-12-05T06:32:34.602Z,88.75
2017-12-05T06:35:01.986Z,88.83
2017-12-05T06:37:29.424Z,88.81
2017-12-05T06:39:56.870Z,88.93
2017-12-05T06:42:24.278Z,88.03
2017-12-05T06:44:51.713Z,87.66
2017-12-05T06:47:19.150Z,88.14
2017-12-05T06:49:46.566Z,88.22
2017-12-05T06:52:13.977Z,88.52
2017-12-05T06:54:41.378Z,88.19
2017-12-05T06:57:08.766Z,88.56
2017-12-05T06:59:36.231Z,88.74
2017-12-05T07:02:03.646Z,89.28
2017-12-05T07:04:31.038Z,89.49
2017-12-05T07:06:58.438Z,89.34
2017-12-05T07:09:25.845Z,89.71
2017-12-05T07:11:53.242Z,89.82
2017-12-05T07:14:20.634Z,90.15
2017-12-05T07:16:48.062Z,90.00
2017-12-05T07:19:15.454Z,89.88
2017-12-05T07:21:42.859Z,89.88
2017-12-05T07:24:10.275Z,89.98
2017-12-05T07:26:37.674Z,89.57
2017-12-05T07:29:05.079Z,89.51
2017-12-05T07:31:32.506Z,89.35
2017-12-05T07:33:59.918Z,89.31
2017-12-05T07:36:27.318Z,89.13
2017-12-05T07:38:54.745Z,89.10
2017-12-05T07:41:22.154Z,88.89
2017-12-05T07:43:49.987Z,88.96
2017-12-05T07:46:17.355Z,89.14
2017-12-05T07:48:44.750Z,89.32
2017-12-05T07:51:12.150Z,89.38
2017-12-05T07:53:39.571Z,89.44
2017-12-05T07:56:06.957Z,88.76
2017-12-05T07:58:34.360Z,88.51
2017-12-05T08:01:01.758Z,88.24
2017-12-05T08:03:29.180Z,87.98
2017-12-05T08:05:56.589Z,88.14
2017-12-05T08:08:24.009Z,88.18
2017-12-05T08:10:51.468Z,88.46
2017-12-05T08:13:18.802Z,88.68
2017-12-05T08:15:46.206Z,88.81
2017-12-05T08:18:13.604Z,88.99
2017-12-05T08:20:41.015Z,89.05
2017-12-05T08:23:08.410Z,89.42
2017-12-05T08:25:35.854Z,89.59
2017-12-05T08:28:03.263Z,89.52
2017-12-05T08:30:30.653Z,89.54
2017-12-05T08:32:58.097Z,89.94
2017-12-05T08:35:25.487Z,89.79
2017-12-05T08:37:52.883Z,89.62
2017-12-05T08:40:20.286Z,89.72
2017-12-05T08:42:47.685Z,90.34
2017-12-05T08:45:15.106Z,90.03
2017-12-05T08:47:42.501Z,90.21
2017-12-05T08:50:09.895Z,90.71
2017-12-05T08:52:37.283Z,91.41
2017-12-05T08:55:04.686Z,91.69
2017-12-05T08:57:32.079Z,92.07
2017-12-05T08:59:59.471Z,92.14
2017-12-05T09:02:26.890Z,92.26
2017-12-05T09:04:54.294Z,91.93
2017-12-05T09:07:21.686Z,92.05
2017-12-05T09:09:49.078Z,91.89
2017-12-05T09:12:16.492Z,91.78
2017-12-05T09:14:43.879Z,91.62
2017-12-05T09:17:11.319Z,91.66
2017-12-05T09:19:38.718Z,91.54
2017-12-05T09:22:06.109Z,91.23
2017-12-05T09:24:33.550Z,90.83
2017-12-05T09:27:00.944Z,90.87
2017-12-05T09:29:28.346Z,90.68
2017-12-05T09:31:55.738Z,90.61
2017-12-05T09:34:23.126Z,90.40
2017-12-05T09:36:50.534Z,90.25
2017-12-05T09:39:17.932Z,89.96
2017-12-05T09:41:45.327Z,89.76
2017-12-05T09:44:12.717Z,89.60
2017-12-05T09:46:40.178Z,89.33
2017-12-05T09:49:07.583Z,89.50
2017-12-05T09:51:34.970Z,89.50
2017-12-05T09:54:02.380Z,88.98
2017-12-05T09:56:29.777Z,88.80
2017-12-05T09:58:57.166Z,89.08
2017-12-05T10:01:24.559Z,88.61
2017-12-05T10:03:51.962Z,88.70
2017-12-05T10:06:19.352Z,88.48
2017-12-05T10:08:46.739Z,88.29
2017-12-05T10:11:14.142Z,88.06
2017-12-05T10:13:41.547Z,87.96
2017-12-05T10:16:08.941Z,87.71
2017-12-05T10:18:36.334Z,87.74
2017-12-05T10:21:03.733Z,87.50
2017-12-05T10:23:31.127Z,87.43
2017-12-05T10:25:58.522Z,87.12
2017-12-05T10:28:25.922Z,87.49
2017-12-05T10:30:53.314Z,87.08
2017-12-05T10:33:20.717Z,86.83
2017-12-05T10:35:48.110Z,87.12
2017-12-05T10:38:15.516Z,86.66
2017-12-05T10:40:42.902Z,86.42
2017-12-05T10:43:10.309Z,86.58
2017-12-05T10:45:37.725Z,86.47
2017-12-05T10:48:05.134Z,85.45
2017-12-05T10:50:32.554Z,86.02
2017-12-05T10:52:59.960Z,86.02
2017-12-05T10:55:27.392Z,86.45
2017-12-05T10:57:54.794Z,85.64
2017-12-05T11:00:22.200Z,85.64
2017-12-05T11:02:49.615Z,85.60
2017-12-05T11:05:17.026Z,85.33
2017-12-05T11:07:44.437Z,85.04
2017-12-05T11:10:11.848Z,85.20
2017-12-05T11:12:39.257Z,85.51
2017-12-05T11:15:06.662Z,83.85
2017-12-05T11:17:34.085Z,84.36
2017-12-05T11:20:01.506Z,85.43
2017-12-05T11:22:28.921Z,85.18
2017-12-05T11:24:56.336Z,84.96
2017-12-05T11:27:23.737Z,84.66
2017-12-05T11:29:51.157Z,84.75
2017-12-05T11:32:19.261Z,84.09
2017-12-05T11:34:46.669Z,83.77
2017-12-05T11:37:14.086Z,84.73
2017-12-05T11:39:41.490Z,84.56
2017-12-05T11:42:08.907Z,84.59
2017-12-05T11:44:36.313Z,84.14
2017-12-05T11:47:03.745Z,83.89
2017-12-05T11:49:31.157Z,84.37
2017-12-05T11:51:58.569Z,84.00
2017-12-05T11:54:25.986Z,84.46
2017-12-05T11:56:53.389Z,84.40
2017-12-05T11:59:20.804Z,84.30
2017-12-05T12:01:48.213Z,84.70
2017-12-05T12:04:15.640Z,84.23
2017-12-05T12:06:43.049Z,83.49
2017-12-05T12:09:10.453Z,83.49
2017-12-05T12:11:38.637Z,83.37
2017-12-05T12:14:06.048Z,83.14
2017-12-05T12:16:33.463Z,83.14
2017-12-05T12:19:00.867Z,83.26
2017-12-05T12:21:28.285Z,83.63
2017-12-05T12:23:55.698Z,83.54
2017-12-05T12:26:23.106Z,83.21
2017-12-05T12:28:50.522Z,83.41
2017-12-05T12:31:17.944Z,82.96
2017-12-05T12:33:45.345Z,83.08
2017-12-05T12:36:12.855Z,82.79
2017-12-05T12:38:40.252Z,83.55
2017-12-05T12:41:07.670Z,83.25
2017-12-05T12:43:35.075Z,82.85
2017-12-05T12:46:02.493Z,83.01
2017-12-05T12:48:29.894Z,83.00
2017-12-05T12:50:57.298Z,83.36
2017-12-05T12:53:24.710Z,83.01
2017-12-05T12:55:52.114Z,82.81
2017-12-05T12:58:19.523Z,83.20
2017-12-05T13:00:46.930Z,83.13
2017-12-05T13:03:14.345Z,82.92
2017-12-05T13:05:41.760Z,83.35
2017-12-05T13:08:09.164Z,83.30
2017-12-05T13:10:36.586Z,82.38
2017-12-05T13:13:03.997Z,82.96
2017-12-05T13:15:31.419Z,82.70
2017-12-05T13:17:58.833Z,82.78
2017-12-05T13:20:26.238Z,82.39
2017-12-05T13:22:54.609Z,82.53
2017-12-05T13:25:22.021Z,82.64
2017-12-05T13:27:49.429Z,82.42
2017-12-05T13:30:16.865Z,82.60
2017-12-05T13:32:44.273Z,82.90
2017-12-05T13:35:11.689Z,82.26
2017-12-05T13:37:39.093Z,82.19
2017-12-05T13:40:06.534Z,82.71
2017-12-05T13:42:33.942Z,82.24
2017-12-05T13:45:01.350Z,82.43
2017-12-05T13:47:29.774Z,82.52
2017-12-05T13:49:57.194Z,82.70
2017-12-05T13:52:24.608Z,82.40
2017-12-05T13:54:52.013Z,82.39
2017-12-05T13:57:19.441Z,82.38
2017-12-05T13:59:47.131Z,82.27
2017-12-05T14:02:14.530Z,81.49
2017-12-05T14:04:41.952Z,82.06
2017-12-05T14:07:09.358Z,81.86
2017-12-05T14:09:36.770Z,82.07
2017-12-05T14:12:04.172Z,82.10
2017-12-05T14:14:31.603Z,81.84
2017-12-05T14:16:59.021Z,81.84
2017-12-05T14:19:26.425Z,82.16
2017-12-05T14:21:53.834Z,81.57
2017-12-05T14:24:21.241Z,81.24
2017-12-05T14:26:48.658Z,81.14
2017-12-05T14:29:16.066Z,81.28
2017-12-05T14:31:43.503Z,81.10
2017-12-05T14:34:10.909Z,81.01
2017-12-05T14:36:38.354Z,80.90
2017-12-05T14:39:05.864Z,80.84
2017-12-05T14:41:33.273Z,81.28
2017-12-05T14:44:00.688Z,81.35
2017-12-05T14:46:28.091Z,81.26
2017-12-05T14:48:55.525Z,81.16
2017-12-05T14:51:22.938Z,81.35
2017-12-05T14:53:50.345Z,81.27
2017-12-05T14:56:17.757Z,81.35
2017-12-05T14:58:45.170Z,81.49
2017-12-05T15:01:12.585Z,80.85
2017-12-05T15:03:39.996Z,80.94
2017-12-05T15:06:07.418Z,81.23
2017-12-05T15:08:34.844Z,81.18
2017-12-05T15:11:02.248Z,80.54
2017-12-05T15:13:29.670Z,80.88
2017-12-05T15:15:57.073Z,80.84
2017-12-05T15:18:24.491Z,80.82
2017-12-05T15:20:51.896Z,80.54
2017-12-05T15:23:19.325Z,80.44
2017-12-05T15:25:52.729Z,80.89
2017-12-05T15:28:20.157Z,80.69
2017-12-05T15:30:47.573Z,80.87
2017-12-05T15:33:14.978Z,81.03
2017-12-05T15:35:42.393Z,80.97
2017-12-05T15:38:09.798Z,80.75
2017-12-05T15:40:37.205Z,80.55
2017-12-05T15:43:04.611Z,80.79
2017-12-05T15:45:32.037Z,80.84
2017-12-05T15:47:59.442Z,80.58
2017-12-05T15:50:26.850Z,80.63
2017-12-05T15:52:54.303Z,80.60
2017-12-05T15:55:21.709Z,80.58
2017-12-05T15:57:49.125Z,80.53
2017-12-05T16:00:16.541Z,80.66
2017-12-05T16:02:43.961Z,81.04
2017-12-05T16:05:11.381Z,81.43
2017-12-05T16:07:38.833Z,81.11
2017-12-05T16:10:06.250Z,81.13
2017-12-05T16:12:33.650Z,80.89
2017-12-05T16:15:01.065Z,81.16
2017-12-05T16:17:28.480Z,81.17
2017-12-05T16:19:55.924Z,81.06
2017-12-05T16:22:23.383Z,80.92
2017-12-05T16:24:50.810Z,80.69
2017-12-05T16:27:18.231Z,80.78
2017-12-05T16:29:45.692Z,80.84
2017-12-05T16:32:13.175Z,80.49
2017-12-05T16:34:40.646Z,80.49
2017-12-05T16:37:08.134Z,80.40
2017-12-05T16:39:35.621Z,80.62
2017-12-05T16:42:03.072Z,80.84
2017-12-05T16:44:30.554Z,80.81
2017-12-05T16:46:58.031Z,80.63
2017-12-05T16:49:25.484Z,80.44
2017-12-05T16:51:52.939Z,80.82
2017-12-05T16:54:20.411Z,80.92
2017-12-05T16:56:47.870Z,80.51
2017-12-05T16:59:15.342Z,80.50
2017-12-05T17:01:42.775Z,80.04
2017-12-05T17:04:10.229Z,79.70
2017-12-05T17:06:37.655Z,80.39
2017-12-05T17:09:05.064Z,80.35
2017-12-05T17:11:36.503Z,80.17
2017-12-05T17:14:03.930Z,80.08
2017-12-05T17:16:31.387Z,80.38
2017-12-05T17:18:58.842Z,79.97
2017-12-05T17:21:42.767Z,79.90
2017-12-05T17:24:11.169Z,80.11
2017-12-05T17:26:38.580Z,79.65
2017-12-05T17:29:06.017Z,80.02
2017-12-05T17:31:33.445Z,80.10
2017-12-05T17:34:00.849Z,80.09
2017-12-05T17:36:28.267Z,80.27
2017-12-05T17:38:55.724Z,80.10
2017-12-05T17:41:23.147Z,80.11
2017-12-05T17:43:50.578Z,80.25
2017-12-05T17:46:18.031Z,80.41
2017-12-05T17:48:45.439Z,80.14
2017-12-05T17:51:12.850Z,80.59
2017-12-05T17:53:40.258Z,80.60
2017-12-05T17:56:07.662Z,80.41
2017-12-05T17:58:35.079Z,80.33
2017-12-05T18:01:02.500Z,80.49
2017-12-05T18:03:29.925Z,80.28
2017-12-05T18:05:57.354Z,80.23
2017-12-05T18:08:24.764Z,80.36
2017-12-05T18:10:52.192Z,79.87
2017-12-05T18:13:19.604Z,80.07
2017-12-05T18:15:47.068Z,80.10
2017-12-05T18:18:14.465Z,79.80
2017-12-05T18:20:41.950Z,80.06
2017-12-05T18:23:09.381Z,80.20
2017-12-05T18:25:36.824Z,79.83
2017-12-05T18:28:04.299Z,79.84
2017-12-05T18:30:31.753Z,80.02
2017-12-05T18:32:59.172Z,79.59
2017-12-05T18:35:27.473Z,79.88
2017-12-05T18:37:55.129Z,79.42
2017-12-05T18:40:22.541Z,79.61
2017-12-05T18:42:49.975Z,79.75
2017-12-05T18:45:17.415Z,79.59
2017-12-05T18:47:44.998Z,79.49
2017-12-05T18:50:12.450Z,79.36
2017-12-05T18:52:40.479Z,79.37
2017-12-05T18:55:07.957Z,79.52
2017-12-05T18:57:36.637Z,79.86
2017-12-05T19:00:04.041Z,79.18
2017-12-05T19:02:32.381Z,79.18
2017-12-05T19:04:59.829Z,79.10
2017-12-05T19:07:27.251Z,78.96
2017-12-05T19:09:54.699Z,79.05
2017-12-05T19:12:22.138Z,79.09
2017-12-05T19:14:49.566Z,79.16
2017-12-05T19:17:17.324Z,79.08
2017-12-05T19:19:44.766Z,79.06
2017-12-05T19:22:12.207Z,78.93
2017-12-05T19:24:39.638Z,78.86
2017-12-05T19:27:07.174Z,79.05
2017-12-05T19:29:35.411Z,78.68
2017-12-05T19:32:02.863Z,78.75
2017-12-05T19:34:30.395Z,78.65
2017-12-05T19:36:57.866Z,78.38
2017-12-05T19:39:25.346Z,78.42
2017-12-05T19:41:52.893Z,78.34
2017-12-05T19:44:28.427Z,78.41
2017-12-05T19:46:57.405Z,78.42
2017-12-05T19:49:25.433Z,78.26
2017-12-05T19:51:53.056Z,78.13
2017-12-05T19:54:20.656Z,78.43
2017-12-05T19:56:49.435Z,78.57
2017-12-05T19:59:17.396Z,78.33
2017-12-05T20:01:45.970Z,78.38
2017-12-05T20:04:13.620Z,78.57
2017-12-05T20:06:43.287Z,78.26
2017-12-05T20:09:10.860Z,78.17
2017-12-05T20:11:38.398Z,78.21
2017-12-05T20:14:05.951Z,77.81
2017-12-05T20:16:33.536Z,77.59
2017-12-05T20:19:01.096Z,77.90
2017-12-05T20:21:28.652Z,77.91
2017-12-05T20:23:56.170Z,78.17
2017-12-05T20:26:23.691Z,77.64
2017-12-05T20:28:51.182Z,77.48
2017-12-05T20:31:18.700Z,77.70
2017-12-05T20:33:46.212Z,77.29
2017-12-05T20:36:13.698Z,77.59
2017-12-05T20:38:41.188Z,77.52
2017-12-05T20:41:08.630Z,77.25
2017-12-05T20:43:36.113Z,77.67
2017-12-05T20:46:03.596Z,77.30
2017-12-05T20:48:31.105Z,77.26
2017-12-05T20:50:58.543Z,77.39
2017-12-05T20:53:25.979Z,77.46
2017-12-05T20:55:53.419Z,77.75
2017-12-05T20:58:20.878Z,77.43
2017-12-05T21:00:48.330Z,77.62
2017-12-05T21:03:15.752Z,77.58
2017-12-05T21:05:43.176Z,77.79
2017-12-05T21:08:10.590Z,77.79
2017-12-05T21:10:38.006Z,77.28
2017-12-05T21:13:06.314Z,77.67
2017-12-05T21:15:34.555Z,77.62
2017-12-05T21:18:01.978Z,77.73
2017-12-05T21:20:29.385Z,77.57
2017-12-05T21:22:56.793Z,77.14
2017-12-05T21:25:24.224Z,77.10
2017-12-05T21:27:51.629Z,77.02
2017-12-05T21:30:19.048Z,77.22
2017-12-05T21:32:46.457Z,77.18
2017-12-05T21:35:13.885Z,77.19
2017-12-05T21:37:41.295Z,77.33
2017-12-05T21:40:08.699Z,77.15
2017-12-05T21:42:36.121Z,77.01
2017-12-05T21:45:03.543Z,76.62
2017-12-05T21:47:30.937Z,77.25
2017-12-05T21:49:58.348Z,76.67
2017-12-05T21:52:25.765Z,76.56
2017-12-05T21:54:53.178Z,76.89
2017-12-05T21:57:20.582Z,76.80
2017-12-05T21:59:47.995Z,76.72
2017-12-05T22:02:15.405Z,77.06
2017-12-05T22:04:42.821Z,76.78
2017-12-05T22:07:10.225Z,76.82
2017-12-05T22:09:37.682Z,76.55
2017-12-05T22:12:05.086Z,76.75
2017-12-05T22:14:32.493Z,75.98
2017-12-05T22:16:59.905Z,75.02
2017-12-05T22:19:27.314Z,75.70
2017-12-05T22:21:54.730Z,75.55
2017-12-05T22:24:22.133Z,75.39
2017-12-05T22:26:49.550Z,75.54
2017-12-05T22:29:16.957Z,75.55
2017-12-05T22:31:44.362Z,74.77
2017-12-05T22:34:11.778Z,75.06
2017-12-05T22:36:39.194Z,75.16
2017-12-05T22:39:06.608Z,74.81
2017-12-05T22:41:34.009Z,73.40
2017-12-05T22:44:01.425Z,73.32
2017-12-05T22:46:28.838Z,72.58
2017-12-05T22:48:56.250Z,73.40
2017-12-05T22:51:23.661Z,72.65
2017-12-05T22:53:51.087Z,72.39
2017-12-05T22:56:18.494Z,72.50
2017-12-05T22:58:45.905Z,72.64
2017-12-05T23:01:13.325Z,72.22
2017-12-05T23:03:40.733Z,72.53
2017-12-05T23:06:08.141Z,72.62
2017-12-05T23:08:35.554Z,72.87
2017-12-05T23:11:02.958Z,73.19
2017-12-05T23:13:30.369Z,73.83
2017-12-05T23:15:57.778Z,73.76
2017-12-05T23:18:25.194Z,73.94
2017-12-05T23:20:52.601Z,74.27
2017-12-05T23:23:20.005Z,74.19
2017-12-05T23:25:47.420Z,74.36
2017-12-05T23:28:14.825Z,74.52
2017-12-05T23:30:42.241Z,74.62
2017-12-05T23:33:09.648Z,74.23
2017-12-05T23:35:37.074Z,74.65
2017-12-05T23:38:04.477Z,75.05
2017-12-05T23:40:31.889Z,75.00
2017-12-05T23:42:59.301Z,75.08
2017-12-05T23:45:26.709Z,74.70
2017-12-05T23:47:54.120Z,75.00
2017-12-05T23:50:21.540Z,75.27
2017-12-05T23:52:48.958Z,74.26
2017-12-05T23:55:16.365Z,74.75
2017-12-05T23:57:43.774Z,74.49
